createdAt,value
2023-05-17T00:00:38.641Z,63.52
2023-05-17T00:03:06.216Z,63.77
2023-05-17T00:05:33.456Z,63.10
2023-05-17T00:08:00.663Z,63.00
2023-05-17T00:10:28.151Z,64.65
2023-05-17T00:12:55.451Z,62.23
2023-05-17T00:15:22.689Z,63.01
2023-05-17T00:17:50.227Z,63.11
2023-05-17T00:20:17.603Z,61.80
2023-05-17T00:22:47.267Z,61.74
2023-05-17T00:25:14.782Z,63.14
2023-05-17T00:27:42.001Z,62.13
2023-05-17T00:30:09.368Z,60.80
2023-05-17T00:32:37.415Z,62.35
2023-05-17T00:35:04.960Z,66.63
2023-05-17T00:37:32.169Z,63.83
2023-05-17T00:39:59.635Z,62.83
2023-05-17T00:42:26.825Z,62.66
2023-05-17T00:44:54.032Z,63.56
2023-05-17T00:47:21.557Z,62.69
2023-05-17T00:49:50.508Z,62.91
2023-05-17T00:52:17.934Z,66.64
2023-05-17T00:54:45.451Z,64.63
2023-05-17T00:57:12.940Z,62.90
2023-05-17T00:59:40.106Z,65.99
2023-05-17T01:02:07.688Z,63.90
2023-05-17T01:04:34.973Z,61.73
2023-05-17T01:07:02.179Z,63.80
2023-05-17T01:09:29.737Z,68.04
2023-05-17T01:12:00.529Z,72.78
2023-05-17T01:14:34.379Z,71.64
2023-05-17T01:17:03.350Z,66.10
2023-05-17T01:19:49.422Z,66.18
2023-05-17T01:22:39.067Z,61.62
2023-05-17T01:25:25.108Z,61.46
2023-05-17T01:27:52.731Z,60.23
2023-05-17T01:30:20.044Z,61.26
2023-05-17T01:32:47.517Z,60.78
2023-05-17T01:35:15.145Z,62.17
2023-05-17T01:37:42.353Z,61.19
2023-05-17T01:40:09.636Z,58.34
2023-05-17T01:42:38.942Z,57.11
2023-05-17T01:45:06.696Z,57.58
2023-05-17T01:47:40.181Z,59.49
2023-05-17T01:50:07.917Z,57.95
2023-05-17T01:52:51.375Z,54.56
2023-05-17T01:55:22.024Z,56.60
2023-05-17T01:57:49.219Z,62.74
2023-05-17T02:00:16.506Z,63.29
2023-05-17T02:02:46.325Z,65.69
2023-05-17T02:05:13.856Z,72.34
2023-05-17T02:07:41.128Z,82.78
2023-05-17T02:10:08.877Z,87.49
2023-05-17T02:12:36.666Z,83.09
2023-05-17T02:15:04.478Z,82.59
2023-05-17T02:17:32.156Z,86.72
2023-05-17T02:19:59.495Z,89.32
2023-05-17T02:22:27.611Z,85.09
2023-05-17T02:24:54.810Z,77.90
2023-05-17T02:27:22.624Z,71.71
2023-05-17T02:29:50.080Z,71.34
2023-05-17T02:32:17.306Z,69.76
2023-05-17T02:34:46.411Z,68.38
2023-05-17T02:37:13.872Z,71.07
2023-05-17T02:39:41.249Z,74.65
2023-05-17T02:42:08.520Z,76.72
2023-05-17T02:44:35.954Z,82.00
2023-05-17T02:47:03.261Z,79.83
2023-05-17T02:49:30.632Z,75.18
2023-05-17T02:51:58.202Z,71.56
2023-05-17T02:54:25.532Z,79.22
2023-05-17T02:56:52.917Z,65.80
2023-05-17T02:59:20.422Z,59.60
2023-05-17T03:01:48.928Z,60.25
2023-05-17T03:04:16.821Z,58.72
2023-05-17T03:06:44.363Z,58.48
2023-05-17T03:09:11.851Z,57.38
2023-05-17T03:11:39.138Z,58.13
2023-05-17T03:14:07.350Z,59.45
2023-05-17T03:16:35.163Z,68.78
2023-05-17T03:19:02.883Z,63.33
2023-05-17T03:21:30.589Z,65.61
2023-05-17T03:23:58.220Z,77.03
2023-05-17T03:26:25.689Z,81.12
2023-05-17T03:28:53.882Z,77.70
2023-05-17T03:31:21.055Z,70.36
2023-05-17T03:33:48.391Z,65.16
2023-05-17T03:36:16.033Z,81.69
2023-05-17T03:38:43.362Z,87.19
2023-05-17T03:41:10.787Z,92.31
2023-05-17T03:43:38.466Z,93.69
2023-05-17T03:46:06.449Z,89.14
2023-05-17T03:48:36.157Z,84.84
2023-05-17T03:51:04.163Z,81.94
2023-05-17T03:53:31.375Z,83.75
2023-05-17T03:55:58.567Z,76.71
2023-05-17T03:58:26.912Z,68.49
2023-05-17T04:00:54.089Z,69.42
2023-05-17T04:03:21.615Z,65.49
2023-05-17T04:05:48.914Z,70.08
2023-05-17T04:08:16.245Z,71.71
2023-05-17T04:10:43.720Z,74.05
2023-05-17T04:13:10.935Z,80.98
2023-05-17T04:15:38.216Z,84.91
2023-05-17T04:18:06.108Z,84.81
2023-05-17T04:20:33.330Z,79.28
2023-05-17T04:23:00.586Z,71.92
2023-05-17T04:25:29.105Z,76.58
2023-05-17T04:27:56.891Z,89.18
2023-05-17T04:30:25.048Z,82.82
2023-05-17T04:32:52.594Z,92.95
2023-05-17T04:35:20.036Z,87.39
2023-05-17T04:37:47.900Z,89.41
2023-05-17T04:40:16.198Z,85.88
2023-05-17T04:42:43.690Z,89.03
2023-05-17T04:45:13.414Z,75.91
2023-05-17T04:47:42.316Z,81.88
2023-05-17T04:50:09.614Z,91.37
2023-05-17T04:52:37.007Z,75.11
2023-05-17T04:55:05.329Z,69.08
2023-05-17T04:57:32.522Z,83.30
2023-05-17T05:00:00.083Z,84.89
2023-05-17T05:02:27.637Z,86.94
2023-05-17T05:04:54.904Z,86.39
2023-05-17T05:07:22.205Z,87.63
2023-05-17T05:09:49.791Z,75.55
2023-05-17T05:12:17.070Z,67.99
2023-05-17T05:14:44.369Z,78.14
2023-05-17T05:17:11.885Z,82.91
2023-05-17T05:19:40.293Z,81.44
2023-05-17T05:22:07.811Z,79.91
2023-05-17T05:24:36.200Z,79.80
2023-05-17T05:27:06.279Z,80.24
2023-05-17T05:29:34.803Z,82.33
2023-05-17T05:32:02.796Z,87.40
2023-05-17T05:34:32.451Z,72.04
2023-05-17T05:37:02.370Z,76.96
2023-05-17T05:39:29.708Z,76.29
2023-05-17T05:41:56.894Z,74.45
2023-05-17T05:44:25.907Z,85.40
2023-05-17T05:46:53.804Z,74.08
2023-05-17T05:49:21.027Z,81.45
2023-05-17T05:51:49.005Z,83.37
2023-05-17T05:54:17.163Z,74.89
2023-05-17T05:56:44.672Z,68.93
2023-05-17T05:59:13.097Z,71.12
2023-05-17T06:01:41.596Z,73.03
2023-05-17T06:04:09.279Z,75.63
2023-05-17T06:06:37.256Z,75.35
2023-05-17T06:09:07.054Z,79.22
2023-05-17T06:11:34.566Z,72.50
2023-05-17T06:14:01.897Z,75.66
2023-05-17T06:16:29.076Z,70.79
2023-05-17T06:18:56.712Z,71.06
2023-05-17T06:21:24.145Z,69.53
2023-05-17T06:23:53.149Z,69.26
2023-05-17T06:26:20.692Z,75.97
2023-05-17T06:28:47.949Z,73.14
2023-05-17T06:31:15.148Z,70.78
2023-05-17T06:33:42.683Z,70.09
2023-05-17T06:36:09.986Z,70.60
2023-05-17T06:38:39.471Z,67.52
2023-05-17T06:41:07.118Z,68.19
2023-05-17T06:43:35.798Z,66.85
2023-05-17T06:46:05.006Z,78.20
2023-05-17T06:48:32.720Z,71.15
2023-05-17T06:51:00.112Z,71.46
2023-05-17T06:53:27.391Z,70.19
2023-05-17T06:55:54.999Z,70.83
2023-05-17T06:58:22.306Z,76.64
2023-05-17T07:00:49.494Z,71.79
2023-05-17T07:03:17.098Z,88.10
2023-05-17T07:05:44.431Z,80.21
2023-05-17T07:08:11.585Z,88.49
2023-05-17T07:10:39.070Z,84.15
2023-05-17T07:13:06.332Z,77.53
2023-05-17T07:15:33.673Z,76.50
2023-05-17T07:18:01.279Z,77.50
2023-05-17T07:20:28.804Z,79.55
2023-05-17T07:22:56.324Z,80.98
2023-05-17T07:25:23.780Z,75.24
2023-05-17T07:27:51.041Z,71.04
2023-05-17T07:30:19.353Z,71.33
2023-05-17T07:32:46.922Z,80.16
2023-05-17T07:35:14.692Z,76.40
2023-05-17T07:37:42.219Z,85.53
2023-05-17T07:40:10.309Z,76.58
2023-05-17T07:42:37.528Z,90.19
2023-05-17T07:45:04.911Z,76.80
2023-05-17T07:47:32.798Z,73.25
2023-05-17T07:50:00.001Z,70.63
2023-05-17T07:52:27.214Z,71.54
2023-05-17T07:54:54.760Z,71.68
2023-05-17T07:57:21.971Z,74.37
2023-05-17T07:59:49.232Z,89.37
2023-05-17T08:02:16.732Z,86.93
2023-05-17T08:04:44.424Z,83.63
2023-05-17T08:07:11.672Z,72.97
2023-05-17T08:09:40.244Z,68.95
2023-05-17T08:12:07.730Z,69.90
2023-05-17T08:14:34.919Z,87.54
2023-05-17T08:17:02.177Z,90.87
2023-05-17T08:19:29.956Z,76.50
2023-05-17T08:21:57.344Z,81.52
2023-05-17T08:24:24.573Z,76.89
2023-05-17T08:26:54.040Z,84.40
2023-05-17T08:29:21.262Z,82.97
2023-05-17T08:31:48.439Z,80.84
2023-05-17T08:34:16.013Z,83.00
2023-05-17T08:36:44.602Z,76.35
2023-05-17T08:39:12.662Z,77.47
2023-05-17T08:41:40.205Z,76.67
2023-05-17T08:44:07.398Z,74.45
2023-05-17T08:46:34.984Z,70.26
2023-05-17T08:49:04.147Z,72.36
2023-05-17T08:51:31.404Z,84.52
2023-05-17T08:53:58.660Z,81.10
2023-05-17T08:56:26.205Z,74.57
2023-05-17T08:58:57.951Z,74.04
2023-05-17T09:01:27.458Z,72.85
2023-05-17T09:03:55.290Z,73.73
2023-05-17T09:06:23.589Z,73.92
2023-05-17T09:08:58.537Z,71.76
2023-05-17T09:11:29.724Z,80.20
2023-05-17T09:14:01.526Z,78.65
2023-05-17T09:16:29.770Z,76.05
2023-05-17T09:18:57.765Z,73.37
2023-05-17T09:21:25.459Z,75.05
2023-05-17T09:24:04.689Z,85.90
2023-05-17T09:26:40.476Z,86.46
2023-05-17T09:29:08.602Z,90.18
2023-05-17T09:31:36.222Z,84.05
2023-05-17T09:34:03.562Z,78.71
2023-05-17T09:36:31.562Z,73.79
2023-05-17T09:39:04.568Z,88.26
2023-05-17T09:41:32.314Z,82.84
2023-05-17T09:44:01.124Z,82.14
2023-05-17T09:46:28.812Z,83.58
2023-05-17T09:48:56.729Z,79.32
2023-05-17T09:51:39.002Z,76.82
2023-05-17T09:54:06.758Z,78.49
2023-05-17T09:56:35.184Z,89.20
2023-05-17T09:59:02.840Z,79.74
2023-05-17T10:01:30.872Z,86.93
2023-05-17T10:04:04.611Z,90.24
2023-05-17T10:06:46.012Z,92.17
2023-05-17T10:09:17.114Z,88.90
2023-05-17T10:11:46.363Z,85.61
2023-05-17T10:14:18.645Z,89.89
2023-05-17T10:16:46.454Z,82.66
2023-05-17T10:19:13.794Z,91.26
2023-05-17T10:21:41.153Z,84.00
2023-05-17T10:24:08.669Z,83.39
2023-05-17T10:26:36.424Z,77.61
2023-05-17T10:29:03.688Z,81.31
2023-05-17T10:31:33.285Z,79.06
2023-05-17T10:34:01.509Z,74.72
2023-05-17T10:36:28.970Z,83.75
2023-05-17T10:38:56.597Z,77.13
2023-05-17T10:41:25.803Z,80.80
2023-05-17T10:43:53.217Z,79.18
2023-05-17T10:46:24.123Z,81.90
2023-05-17T10:48:52.210Z,86.38
2023-05-17T10:51:37.951Z,86.67
2023-05-17T10:54:09.193Z,89.21
2023-05-17T10:56:39.478Z,87.84
2023-05-17T10:59:17.078Z,81.74
2023-05-17T11:01:54.579Z,84.04
2023-05-17T11:04:26.416Z,77.45
2023-05-17T11:07:25.186Z,78.32
2023-05-17T11:09:55.930Z,83.48
2023-05-17T11:12:34.941Z,85.17
2023-05-17T11:15:08.581Z,85.51
2023-05-17T11:17:42.606Z,88.38
2023-05-17T11:20:13.875Z,86.79
2023-05-17T11:22:42.433Z,88.55
2023-05-17T11:25:13.553Z,82.84
2023-05-17T11:27:50.827Z,90.63
2023-05-17T11:30:31.655Z,84.38
2023-05-17T11:33:00.340Z,76.74
2023-05-17T11:35:29.202Z,87.66
2023-05-17T11:38:16.182Z,81.64
2023-05-17T11:40:44.330Z,81.80
2023-05-17T11:43:18.648Z,80.89
2023-05-17T11:45:53.815Z,83.48
2023-05-17T11:48:22.203Z,82.47
2023-05-17T11:50:50.638Z,76.22
2023-05-17T11:53:18.188Z,77.87
2023-05-17T11:55:50.433Z,77.52
2023-05-17T11:58:19.311Z,83.41
2023-05-17T12:00:51.328Z,80.03
2023-05-17T12:03:19.619Z,81.25
2023-05-17T12:05:47.358Z,83.51
2023-05-17T12:08:18.308Z,86.46
2023-05-17T12:10:49.994Z,79.62
2023-05-17T12:13:17.354Z,80.20
2023-05-17T12:15:45.265Z,76.79
2023-05-17T12:18:13.268Z,78.15
2023-05-17T12:20:52.940Z,79.62
2023-05-17T12:23:25.842Z,81.68
2023-05-17T12:26:01.835Z,84.29
2023-05-17T12:28:29.454Z,78.54
2023-05-17T12:31:02.691Z,79.72
2023-05-17T12:33:31.275Z,79.18
2023-05-17T12:35:59.571Z,79.42
2023-05-17T12:38:28.499Z,78.67
2023-05-17T12:40:56.116Z,81.22
2023-05-17T12:43:24.402Z,80.47
2023-05-17T12:45:52.767Z,80.63
2023-05-17T12:48:23.880Z,78.36
2023-05-17T12:50:52.269Z,73.88
2023-05-17T12:53:19.830Z,74.30
2023-05-17T12:55:47.089Z,73.93
2023-05-17T12:58:14.285Z,81.51
2023-05-17T13:00:41.829Z,80.67
2023-05-17T13:03:09.706Z,84.45
2023-05-17T13:05:36.945Z,85.54
2023-05-17T13:08:20.396Z,76.68
2023-05-17T13:10:49.842Z,76.38
2023-05-17T13:13:20.662Z,78.50
2023-05-17T13:15:48.030Z,73.94
2023-05-17T13:18:16.376Z,78.78
2023-05-17T13:20:44.086Z,73.03
2023-05-17T13:23:11.439Z,76.84
2023-05-17T13:25:39.973Z,75.53
2023-05-17T13:28:07.452Z,81.45
2023-05-17T13:30:34.708Z,75.57
2023-05-17T13:33:02.002Z,74.83
2023-05-17T13:35:29.587Z,73.04
2023-05-17T13:37:57.910Z,79.04
2023-05-17T13:40:25.112Z,81.56
2023-05-17T13:42:52.818Z,75.37
2023-05-17T13:45:20.056Z,73.60
2023-05-17T13:47:47.409Z,77.48
2023-05-17T13:50:17.361Z,72.64
2023-05-17T13:52:44.653Z,72.92
2023-05-17T13:55:12.210Z,80.54
2023-05-17T13:57:39.723Z,76.97
2023-05-17T14:00:07.279Z,73.28
2023-05-17T14:02:36.339Z,75.04
2023-05-17T14:05:05.488Z,74.93
2023-05-17T14:07:33.036Z,76.24
2023-05-17T14:10:01.017Z,74.90
2023-05-17T14:12:28.605Z,77.35
2023-05-17T14:14:55.978Z,81.26
2023-05-17T14:17:23.517Z,83.95
2023-05-17T14:19:51.063Z,83.17
2023-05-17T14:22:18.433Z,86.11
2023-05-17T14:24:45.972Z,83.35
2023-05-17T14:27:13.240Z,81.58
2023-05-17T14:29:40.684Z,84.78
2023-05-17T14:32:08.221Z,77.62
2023-05-17T14:34:35.646Z,76.70
2023-05-17T14:37:03.069Z,74.00
2023-05-17T14:39:30.837Z,83.18
2023-05-17T14:41:58.445Z,78.09
2023-05-17T14:44:27.058Z,76.68
2023-05-17T14:46:54.547Z,77.86
2023-05-17T14:49:21.791Z,81.19
2023-05-17T14:51:49.095Z,83.22
2023-05-17T14:54:16.865Z,79.10
2023-05-17T14:56:45.453Z,75.92
2023-05-17T14:59:12.845Z,79.33
2023-05-17T15:01:40.336Z,80.26
2023-05-17T15:04:07.851Z,80.56
2023-05-17T15:06:35.172Z,78.84
2023-05-17T15:09:04.043Z,74.00
2023-05-17T15:11:31.399Z,81.92
2023-05-17T15:13:58.996Z,77.58
2023-05-17T15:16:26.834Z,74.22
2023-05-17T15:18:56.117Z,76.73
2023-05-17T15:21:24.988Z,74.39
2023-05-17T15:23:52.476Z,76.73
2023-05-17T15:26:19.732Z,81.01
2023-05-17T15:28:49.845Z,86.39
2023-05-17T15:31:17.330Z,80.40
2023-05-17T15:33:44.648Z,85.56
2023-05-17T15:36:13.151Z,79.95
2023-05-17T15:38:41.343Z,85.83
2023-05-17T15:41:11.076Z,81.01
2023-05-17T15:43:38.266Z,84.21
2023-05-17T15:46:05.806Z,84.51
2023-05-17T15:48:34.268Z,81.95
2023-05-17T15:51:02.090Z,82.80
2023-05-17T15:53:29.750Z,81.91
2023-05-17T15:55:57.064Z,80.91
2023-05-17T15:58:24.870Z,85.03
2023-05-17T16:00:52.660Z,83.95
2023-05-17T16:03:20.461Z,81.37
2023-05-17T16:05:47.880Z,81.11
2023-05-17T16:08:15.253Z,81.41
2023-05-17T16:10:42.925Z,79.17
2023-05-17T16:13:10.167Z,81.41
2023-05-17T16:15:37.586Z,80.58
2023-05-17T16:18:05.319Z,82.41
2023-05-17T16:20:32.602Z,81.39
2023-05-17T16:22:59.960Z,80.38
2023-05-17T16:25:27.819Z,75.59
2023-05-17T16:27:58.292Z,83.31
2023-05-17T16:30:25.585Z,82.22
2023-05-17T16:32:53.152Z,80.71
2023-05-17T16:35:23.547Z,81.19
2023-05-17T16:37:51.538Z,79.67
2023-05-17T16:40:19.139Z,79.73
2023-05-17T16:42:46.596Z,81.81
2023-05-17T16:45:13.827Z,81.16
2023-05-17T16:47:41.595Z,84.74
2023-05-17T16:50:09.220Z,87.59
2023-05-17T16:52:36.436Z,87.47
2023-05-17T16:55:04.120Z,83.41
2023-05-17T16:57:32.776Z,85.52
2023-05-17T17:00:01.021Z,84.20
2023-05-17T17:02:29.586Z,82.10
2023-05-17T17:04:58.563Z,78.62
2023-05-17T17:07:26.118Z,86.00
2023-05-17T17:09:53.634Z,82.63
2023-05-17T17:12:25.208Z,82.61
2023-05-17T17:14:53.854Z,81.22
2023-05-17T17:17:21.502Z,81.99
2023-05-17T17:19:48.740Z,83.33
2023-05-17T17:22:16.716Z,82.32
2023-05-17T17:24:44.470Z,82.26
2023-05-17T17:27:12.021Z,80.47
2023-05-17T17:29:39.536Z,82.19
2023-05-17T17:32:07.248Z,86.21
2023-05-17T17:34:34.505Z,83.08
2023-05-17T17:37:02.076Z,81.24
2023-05-17T17:39:30.366Z,82.31
2023-05-17T17:41:57.547Z,77.12
2023-05-17T17:44:25.332Z,74.89
2023-05-17T17:46:52.713Z,87.47
2023-05-17T17:49:20.029Z,87.21
2023-05-17T17:51:47.497Z,87.18
2023-05-17T17:54:14.701Z,80.72
2023-05-17T17:56:41.902Z,79.49
2023-05-17T17:59:09.395Z,79.23
2023-05-17T18:01:38.395Z,79.78
2023-05-17T18:04:06.091Z,84.41
2023-05-17T18:06:33.577Z,78.80
2023-05-17T18:09:00.898Z,74.79
2023-05-17T18:11:28.372Z,83.51
2023-05-17T18:13:55.709Z,74.25
2023-05-17T18:16:23.182Z,76.88
2023-05-17T18:18:51.230Z,79.71
2023-05-17T18:21:18.665Z,84.08
2023-05-17T18:23:46.210Z,78.32
2023-05-17T18:26:13.693Z,81.19
2023-05-17T18:28:42.894Z,76.67
2023-05-17T18:31:10.685Z,74.47
2023-05-17T18:33:38.217Z,77.42
2023-05-17T18:36:06.865Z,78.11
2023-05-17T18:38:35.576Z,76.60
2023-05-17T18:41:03.124Z,74.46
2023-05-17T18:43:31.421Z,74.66
2023-05-17T18:45:58.730Z,75.33
2023-05-17T18:48:26.716Z,78.42
2023-05-17T18:50:54.462Z,75.95
2023-05-17T18:53:22.189Z,79.85
2023-05-17T18:55:49.717Z,77.03
2023-05-17T18:58:17.019Z,76.86
2023-05-17T19:00:48.629Z,80.44
2023-05-17T19:03:17.038Z,80.40
2023-05-17T19:05:44.913Z,81.01
2023-05-17T19:08:12.787Z,74.53
2023-05-17T19:10:40.863Z,75.14
2023-05-17T19:13:09.307Z,75.65
2023-05-17T19:15:37.233Z,75.35
2023-05-17T19:18:05.795Z,79.58
2023-05-17T19:20:34.926Z,77.92
2023-05-17T19:23:02.242Z,75.33
2023-05-17T19:25:30.360Z,74.29
2023-05-17T19:27:57.828Z,72.53
2023-05-17T19:30:25.164Z,75.90
2023-05-17T19:32:53.187Z,82.03
2023-05-17T19:35:21.305Z,80.66
2023-05-17T19:37:48.920Z,77.85
2023-05-17T19:40:19.404Z,77.68
2023-05-17T19:42:47.029Z,71.16
2023-05-17T19:45:14.741Z,70.23
2023-05-17T19:47:43.278Z,79.30
2023-05-17T19:50:12.205Z,73.92
2023-05-17T19:52:41.711Z,66.01
2023-05-17T19:55:10.117Z,71.85
2023-05-17T19:57:37.505Z,67.38
2023-05-17T20:00:05.786Z,68.29
2023-05-17T20:02:33.201Z,63.48
2023-05-17T20:05:04.160Z,70.26
2023-05-17T20:07:33.107Z,70.82
2023-05-17T20:10:01.708Z,73.48
2023-05-17T20:12:29.445Z,72.39
2023-05-17T20:14:56.767Z,67.46
2023-05-17T20:17:24.602Z,68.95
2023-05-17T20:19:52.199Z,77.92
2023-05-17T20:22:21.104Z,72.41
2023-05-17T20:24:48.924Z,71.83
2023-05-17T20:27:16.384Z,66.62
2023-05-17T20:29:43.956Z,67.48
2023-05-17T20:32:11.550Z,69.89
2023-05-17T20:34:38.765Z,70.72
2023-05-17T20:37:06.021Z,76.24
2023-05-17T20:39:33.525Z,76.92
2023-05-17T20:42:01.389Z,75.25
2023-05-17T20:44:28.860Z,74.00
2023-05-17T20:46:56.940Z,74.30
2023-05-17T20:49:24.196Z,73.05
2023-05-17T20:51:51.403Z,74.69
2023-05-17T20:54:18.841Z,75.07
2023-05-17T20:56:46.111Z,76.05
2023-05-17T20:59:13.282Z,76.65
2023-05-17T21:01:41.478Z,75.92
2023-05-17T21:04:08.822Z,76.76
2023-05-17T21:06:36.397Z,75.06
2023-05-17T21:09:03.925Z,74.61
2023-05-17T21:11:31.172Z,72.16
2023-05-17T21:13:59.776Z,73.96
2023-05-17T21:16:27.413Z,74.44
2023-05-17T21:18:54.742Z,74.06
2023-05-17T21:21:21.988Z,74.60
2023-05-17T21:23:49.621Z,70.79
2023-05-17T21:26:17.203Z,73.61
2023-05-17T21:28:44.478Z,72.74
2023-05-17T21:31:12.029Z,75.39
2023-05-17T21:33:39.382Z,75.80
2023-05-17T21:36:06.589Z,78.80
2023-05-17T21:38:34.090Z,76.08
2023-05-17T21:41:01.386Z,78.40
2023-05-17T21:43:28.984Z,81.86
2023-05-17T21:45:56.439Z,82.62
2023-05-17T21:48:23.729Z,81.47
2023-05-17T21:50:50.967Z,81.44
2023-05-17T21:53:18.425Z,82.30
2023-05-17T21:56:00.688Z,80.42
2023-05-17T21:58:30.469Z,81.36
2023-05-17T22:00:58.154Z,69.10
2023-05-17T22:03:26.008Z,73.96
2023-05-17T22:05:53.516Z,74.56
2023-05-17T22:08:20.727Z,71.63
2023-05-17T22:10:50.214Z,72.65
2023-05-17T22:13:18.386Z,78.67
2023-05-17T22:15:45.734Z,79.90
2023-05-17T22:18:13.809Z,76.26
2023-05-17T22:20:41.069Z,74.41
2023-05-17T22:23:08.307Z,75.86
2023-05-17T22:25:35.842Z,81.69
2023-05-17T22:28:03.200Z,76.20
2023-05-17T22:30:30.585Z,82.43
2023-05-17T22:32:58.472Z,79.54
2023-05-17T22:35:25.774Z,75.74
2023-05-17T22:37:53.579Z,74.78
2023-05-17T22:40:21.254Z,67.53
2023-05-17T22:42:48.589Z,73.42
2023-05-17T22:45:15.908Z,75.27
2023-05-17T22:47:43.595Z,72.76
2023-05-17T22:50:12.105Z,69.21
2023-05-17T22:52:41.229Z,70.46
2023-05-17T22:55:09.605Z,67.86
2023-05-17T22:57:36.835Z,67.15
2023-05-17T23:00:06.309Z,70.83
2023-05-17T23:02:33.805Z,66.41
2023-05-17T23:05:03.854Z,67.66
2023-05-17T23:07:37.014Z,71.90
2023-05-17T23:10:05.197Z,75.47
2023-05-17T23:12:33.269Z,67.80
2023-05-17T23:15:00.460Z,76.05
2023-05-17T23:17:32.506Z,71.40
2023-05-17T23:20:02.052Z,73.19
2023-05-17T23:22:31.591Z,75.14
2023-05-17T23:24:59.095Z,76.26
2023-05-17T23:27:27.720Z,71.69
2023-05-17T23:29:56.413Z,74.26
2023-05-17T23:32:23.745Z,78.48
2023-05-17T23:34:54.147Z,73.91
2023-05-17T23:37:21.581Z,69.24
2023-05-17T23:39:48.761Z,70.17
2023-05-17T23:42:15.933Z,69.84
2023-05-17T23:44:43.507Z,68.79
2023-05-17T23:47:10.714Z,76.45
2023-05-17T23:49:41.066Z,67.19
2023-05-17T23:52:10.906Z,60.94
2023-05-17T23:54:42.119Z,65.74
2023-05-17T23:57:09.615Z,66.69
2023-05-17T23:59:36.943Z,64.35
